sensor_id;sensor_type;location;lat;lon;timestamp;pressure;altitude;pressure_sealevel;temperature;humidity
41624;BME280;27319;50.306;18.926;2024-03-07T00:02:26;98947.75;;;2.45;100.00
41624;BME280;27319;50.306;18.926;2024-03-07T00:06:27;98959.25;;;2.46;100.00
41624;BME280;27319;50.306;18.926;2024-03-07T00:10:27;98961.13;;;2.45;100.00
41624;BME280;27319;50.306;18.926;2024-03-07T00:14:28;98957.19;;;2.43;100.00
41624;BME280;27319;50.306;18.926;2024-03-07T00:18:29;98951.84;;;2.51;100.00
41624;BME280;27319;50.306;18.926;2024-03-07T00:22:30;98961.91;;;2.28;100.00
41624;BME280;27319;50.306;18.926;2024-03-07T00:26:31;98952.63;;;2.43;100.00
41624;BME280;27319;50.306;18.926;2024-03-07T00:30:32;98957.97;;;2.43;100.00
41624;BME280;27319;50.306;18.926;2024-03-07T00:34:33;98946.06;;;2.32;100.00
41624;BME280;27319;50.306;18.926;2024-03-07T00:38:34;98953.28;;;2.31;100.00
41624;BME280;27319;50.306;18.926;2024-03-07T00:42:34;98952.31;;;2.36;100.00
41624;BME280;27319;50.306;18.926;2024-03-07T00:46:36;98944.78;;;2.38;100.00
41624;BME280;27319;50.306;18.926;2024-03-07T00:50:36;98943.69;;;2.30;100.00
41624;BME280;27319;50.306;18.926;2024-03-07T00:54:37;98946.84;;;2.41;100.00
41624;BME280;27319;50.306;18.926;2024-03-07T00:58:38;98944.66;;;2.34;100.00
41624;BME280;27319;50.306;18.926;2024-03-07T01:02:39;98950.13;;;2.38;100.00
41624;BME280;27319;50.306;18.926;2024-03-07T01:06:39;98948.72;;;2.32;100.00
41624;BME280;27319;50.306;18.926;2024-03-07T01:10:40;98945.13;;;2.28;100.00
41624;BME280;27319;50.306;18.926;2024-03-07T01:14:41;98941.81;;;2.31;99.47
41624;BME280;27319;50.306;18.926;2024-03-07T01:18:22;98942.28;;;2.33;99.81
41624;BME280;27319;50.306;18.926;2024-03-07T01:21:43;98937.09;;;2.19;100.00
41624;BME280;27319;50.306;18.926;2024-03-07T01:25:43;98938.19;;;2.27;99.48
41624;BME280;27319;50.306;18.926;2024-03-07T01:29:44;98935.19;;;2.37;99.17
41624;BME280;27319;50.306;18.926;2024-03-07T01:33:45;98934.88;;;2.30;99.36
41624;BME280;27319;50.306;18.926;2024-03-07T01:37:46;98944.16;;;2.24;99.41
41624;BME280;27319;50.306;18.926;2024-03-07T01:41:47;98940.88;;;2.27;100.00
41624;BME280;27319;50.306;18.926;2024-03-07T01:45:48;98937.09;;;2.19;99.58
41624;BME280;27319;50.306;18.926;2024-03-07T01:49:49;98931.91;;;2.23;100.00
41624;BME280;27319;50.306;18.926;2024-03-07T01:53:50;98929.53;;;2.21;99.33
41624;BME280;27319;50.306;18.926;2024-03-07T01:57:50;98927.66;;;2.30;99.56
41624;BME280;27319;50.306;18.926;2024-03-07T02:01:51;98932.06;;;2.26;99.63
41624;BME280;27319;50.306;18.926;2024-03-07T02:05:51;98921.69;;;2.33;99.27
41624;BME280;27319;50.306;18.926;2024-03-07T02:10:25;98920.16;;;2.07;99.68
41624;BME280;27319;50.306;18.926;2024-03-07T02:13:59;98917.63;;;2.19;99.67
41624;BME280;27319;50.306;18.926;2024-03-07T02:18:00;98914.16;;;2.18;98.95
41624;BME280;27319;50.306;18.926;2024-03-07T02:22:01;98917.13;;;2.17;99.27
41624;BME280;27319;50.306;18.926;2024-03-07T02:26:02;98914.94;;;2.27;98.58
41624;BME280;27319;50.306;18.926;2024-03-07T02:30:03;98913.84;;;2.20;98.39
41624;BME280;27319;50.306;18.926;2024-03-07T02:34:03;98913.50;;;2.21;98.82
41624;BME280;27319;50.306;18.926;2024-03-07T02:38:04;98914.00;;;2.15;98.31
41624;BME280;27319;50.306;18.926;2024-03-07T02:42:04;98914.94;;;2.19;97.75
41624;BME280;27319;50.306;18.926;2024-03-07T02:45:45;98912.09;;;2.24;97.57
41624;BME280;27319;50.306;18.926;2024-03-07T02:49:06;98912.59;;;2.09;97.49
41624;BME280;27319;50.306;18.926;2024-03-07T02:53:07;98917.00;;;2.13;96.92
41624;BME280;27319;50.306;18.926;2024-03-07T02:57:08;98913.06;;;2.11;97.43
41624;BME280;27319;50.306;18.926;2024-03-07T03:01:09;98918.09;;;2.04;97.62
41624;BME280;27319;50.306;18.926;2024-03-07T03:05:10;98911.19;;;2.03;97.52
41624;BME280;27319;50.306;18.926;2024-03-07T03:09:11;98916.81;;;2.10;97.74
41624;BME280;27319;50.306;18.926;2024-03-07T03:13:12;98916.53;;;2.03;97.78
41624;BME280;27319;50.306;18.926;2024-03-07T03:17:12;98918.44;;;1.93;97.01
41624;BME280;27319;50.306;18.926;2024-03-07T03:21:13;98918.09;;;2.04;96.88
41624;BME280;27319;50.306;18.926;2024-03-07T03:25:14;98916.81;;;2.10;96.94
41624;BME280;27319;50.306;18.926;2024-03-07T03:29:18;98918.72;;;1.83;96.27
41624;BME280;27319;50.306;18.926;2024-03-07T03:33:19;98917.16;;;2.00;97.07
41624;BME280;27319;50.306;18.926;2024-03-07T03:37:20;98921.06;;;2.02;96.36
41624;BME280;27319;50.306;18.926;2024-03-07T03:41:21;98925.63;;;2.02;96.74
41624;BME280;27319;50.306;18.926;2024-03-07T03:45:21;98922.50;;;2.00;96.00
41624;BME280;27319;50.306;18.926;2024-03-07T03:49:22;98933.03;;;1.96;96.06
41624;BME280;27319;50.306;18.926;2024-03-07T03:53:23;98934.13;;;1.86;95.46
41624;BME280;27319;50.306;18.926;2024-03-07T03:57:24;98930.03;;;1.80;95.84
41624;BME280;27319;50.306;18.926;2024-03-07T04:01:25;98936.16;;;1.81;94.75
41624;BME280;27319;50.306;18.926;2024-03-07T04:05:26;98932.88;;;1.92;94.55
41624;BME280;27319;50.306;18.926;2024-03-07T04:09:26;98932.41;;;1.90;94.30
41624;BME280;27319;50.306;18.926;2024-03-07T04:13:27;98931.91;;;1.71;94.54
41624;BME280;27319;50.306;18.926;2024-03-07T04:17:28;98935.22;;;1.77;93.74
41624;BME280;27319;50.306;18.926;2024-03-07T04:21:29;98935.38;;;1.80;94.07
41624;BME280;27319;50.306;18.926;2024-03-07T04:25:30;98931.75;;;1.76;93.80
41624;BME280;27319;50.306;18.926;2024-03-07T04:29:34;98933.78;;;1.62;93.11
41624;BME280;27319;50.306;18.926;2024-03-07T04:33:31;98934.28;;;1.73;94.32
41624;BME280;27319;50.306;18.926;2024-03-07T04:37:41;98939.13;;;1.62;93.91
41624;BME280;27319;50.306;18.926;2024-03-07T04:41:33;98936.28;;;1.67;94.59
41624;BME280;27319;50.306;18.926;2024-03-07T04:45:34;98936.44;;;1.53;93.73
41624;BME280;27319;50.306;18.926;2024-03-07T04:49:15;98943.53;;;1.58;94.51
41624;BME280;27319;50.306;18.926;2024-03-07T04:52:16;98939.94;;;1.71;93.57
41624;BME280;27319;50.306;18.926;2024-03-07T04:55:17;98940.38;;;1.56;93.25
41624;BME280;27319;50.306;18.926;2024-03-07T04:58:18;98946.00;;;1.46;93.42
41624;BME280;27319;50.306;18.926;2024-03-07T05:01:39;98953.88;;;1.59;93.50
41624;BME280;27319;50.306;18.926;2024-03-07T05:05:40;98949.78;;;1.45;94.16
41624;BME280;27319;50.306;18.926;2024-03-07T05:09:41;98950.84;;;1.35;93.24
41624;BME280;27319;50.306;18.926;2024-03-07T05:13:42;98956.34;;;1.39;93.87
41624;BME280;27319;50.306;18.926;2024-03-07T05:17:42;98952.91;;;1.47;93.51
41624;BME280;27319;50.306;18.926;2024-03-07T05:21:43;98955.72;;;1.42;93.45
41624;BME280;27319;50.306;18.926;2024-03-07T05:25:44;98959.63;;;1.27;92.96
41624;BME280;27319;50.306;18.926;2024-03-07T05:29:45;98963.66;;;1.25;92.77
41624;BME280;27319;50.306;18.926;2024-03-07T05:33:48;98962.56;;;1.26;93.83
41624;BME280;27319;50.306;18.926;2024-03-07T05:37:49;98973.44;;;1.29;93.22
41624;BME280;27319;50.306;18.926;2024-03-07T05:41:50;98974.69;;;1.23;93.49
41624;BME280;27319;50.306;18.926;2024-03-07T05:45:51;98981.94;;;1.31;93.53
41624;BME280;27319;50.306;18.926;2024-03-07T05:49:52;98981.84;;;1.14;93.33
41624;BME280;27319;50.306;18.926;2024-03-07T05:53:53;98977.19;;;1.28;92.92
41624;BME280;27319;50.306;18.926;2024-03-07T05:57:53;98969.78;;;1.16;93.84
41624;BME280;27319;50.306;18.926;2024-03-07T06:01:54;98982.84;;;1.27;92.80
41624;BME280;27319;50.306;18.926;2024-03-07T06:05:55;98978.53;;;1.08;93.89
41624;BME280;27319;50.306;18.926;2024-03-07T06:09:56;98985.25;;;1.45;92.73
41624;BME280;27319;50.306;18.926;2024-03-07T06:13:57;98976.69;;;1.17;93.50
41624;BME280;27319;50.306;18.926;2024-03-07T06:17:57;98990.25;;;1.30;93.22
41624;BME280;27319;50.306;18.926;2024-03-07T06:21:58;98983.78;;;1.22;92.74
41624;BME280;27319;50.306;18.926;2024-03-07T06:25:59;98988.31;;;1.22;93.70
41624;BME280;27319;50.306;18.926;2024-03-07T06:30:01;98986.75;;;1.21;92.99
41624;BME280;27319;50.306;18.926;2024-03-07T06:34:01;98990.25;;;1.30;92.91
41624;BME280;27319;50.306;18.926;2024-03-07T06:38:02;98986.19;;;1.41;92.70
41624;BME280;27319;50.306;18.926;2024-03-07T06:42:03;98993.06;;;1.33;92.48
41624;BME280;27319;50.306;18.926;2024-03-07T06:46:04;98994.59;;;1.26;91.82
41624;BME280;27319;50.306;18.926;2024-03-07T06:50:05;98997.75;;;1.28;91.85
41624;BME280;27319;50.306;18.926;2024-03-07T06:53:46;99007.53;;;1.41;91.82
41624;BME280;27319;50.306;18.926;2024-03-07T06:57:10;98996.66;;;1.29;90.91
41624;BME280;27319;50.306;18.926;2024-03-07T07:01:12;99003.78;;;1.42;91.01
41624;BME280;27319;50.306;18.926;2024-03-07T07:05:12;98998.16;;;1.52;90.94
41624;BME280;27319;50.306;18.926;2024-03-07T07:09:13;98993.75;;;1.56;91.21
41624;BME280;27319;50.306;18.926;2024-03-07T07:13:13;99000.50;;;1.45;91.21
41624;BME280;27319;50.306;18.926;2024-03-07T07:17:14;98994.69;;;1.60;90.93
41624;BME280;27319;50.306;18.926;2024-03-07T07:21:15;99002.25;;;1.58;90.39
41624;BME280;27319;50.306;18.926;2024-03-07T07:25:16;99003.06;;;1.76;90.55
41624;BME280;27319;50.306;18.926;2024-03-07T07:29:17;99001.03;;;1.73;89.74
41624;BME280;27319;50.306;18.926;2024-03-07T07:33:18;99000.25;;;1.72;90.31
41624;BME280;27319;50.306;18.926;2024-03-07T07:37:18;99008.25;;;1.72;90.58
41624;BME280;27319;50.306;18.926;2024-03-07T07:41:19;99003.41;;;1.91;89.63
41624;BME280;27319;50.306;18.926;2024-03-07T07:45:21;99002.31;;;1.92;90.46
41624;BME280;27319;50.306;18.926;2024-03-07T07:49:21;99012.53;;;1.90;89.91
41624;BME280;27319;50.306;18.926;2024-03-07T07:53:22;99008.28;;;1.89;89.60
41624;BME280;27319;50.306;18.926;2024-03-07T07:57:22;99013.13;;;1.87;89.98
41624;BME280;27319;50.306;18.926;2024-03-07T08:01:23;99015.97;;;1.82;89.38
41624;BME280;27319;50.306;18.926;2024-03-07T08:05:25;99014.38;;;1.81;89.84
41624;BME280;27319;50.306;18.926;2024-03-07T08:09:27;99015.03;;;1.95;89.40
41624;BME280;27319;50.306;18.926;2024-03-07T08:13:28;99011.25;;;1.88;90.02
41624;BME280;27319;50.306;18.926;2024-03-07T08:17:29;99012.22;;;2.01;90.71
41624;BME280;27319;50.306;18.926;2024-03-07T08:21:10;99015.81;;;1.87;89.71
41624;BME280;27319;50.306;18.926;2024-03-07T08:24:11;99022.75;;;2.06;90.01
41624;BME280;27319;50.306;18.926;2024-03-07T08:27:32;99016.31;;;2.07;89.36
41624;BME280;27319;50.306;18.926;2024-03-07T08:31:33;99016.16;;;2.12;89.04
41624;BME280;27319;50.306;18.926;2024-03-07T08:35:34;99020.09;;;2.06;89.53
41624;BME280;27319;50.306;18.926;2024-03-07T08:39:34;99019.59;;;2.04;90.09
41624;BME280;27319;50.306;18.926;2024-03-07T08:43:35;99021.97;;;2.22;89.51
41624;BME280;27319;50.306;18.926;2024-03-07T08:47:37;99037.03;;;2.01;88.39
41624;BME280;27319;50.306;18.926;2024-03-07T08:51:37;99034.03;;;1.94;88.79
41624;BME280;27319;50.306;18.926;2024-03-07T08:55:38;99034.06;;;2.03;88.02
41624;BME280;27319;50.306;18.926;2024-03-07T08:59:39;99026.69;;;2.00;87.72
41624;BME280;27319;50.306;18.926;2024-03-07T09:03:39;99026.84;;;2.12;88.32
41624;BME280;27319;50.306;18.926;2024-03-07T09:07:40;99024.50;;;2.19;88.21
41624;BME280;27319;50.306;18.926;2024-03-07T09:11:41;99036.91;;;2.23;88.56
41624;BME280;27319;50.306;18.926;2024-03-07T09:15:42;99040.38;;;2.07;88.08
41624;BME280;27319;50.306;18.926;2024-03-07T09:19:43;99043.69;;;2.21;88.83
41624;BME280;27319;50.306;18.926;2024-03-07T09:23:44;99043.50;;;2.09;88.46
41624;BME280;27319;50.306;18.926;2024-03-07T09:27:44;99046.03;;;2.31;88.25
41624;BME280;27319;50.306;18.926;2024-03-07T09:31:45;99045.72;;;2.24;87.60
41624;BME280;27319;50.306;18.926;2024-03-07T09:35:46;99052.03;;;2.28;88.13
41624;BME280;27319;50.306;18.926;2024-03-07T09:39:47;99054.53;;;2.33;88.70
41624;BME280;27319;50.306;18.926;2024-03-07T09:43:48;99054.03;;;2.22;87.72
41624;BME280;27319;50.306;18.926;2024-03-07T09:47:49;99065.84;;;2.13;87.10
41624;BME280;27319;50.306;18.926;2024-03-07T09:51:50;99068.03;;;2.19;87.13
41624;BME280;27319;50.306;18.926;2024-03-07T09:55:51;99063.94;;;2.22;87.72
41624;BME280;27319;50.306;18.926;2024-03-07T09:59:51;99063.31;;;2.25;88.91
41624;BME280;27319;50.306;18.926;2024-03-07T10:03:57;99075.75;;;2.29;88.63
41624;BME280;27319;50.306;18.926;2024-03-07T10:07:53;99074.66;;;2.39;88.29
41624;BME280;27319;50.306;18.926;2024-03-07T10:11:55;99068.84;;;2.37;87.95
41624;BME280;27319;50.306;18.926;2024-03-07T10:15:58;99075.91;;;2.33;87.84
41624;BME280;27319;50.306;18.926;2024-03-07T10:19:59;99071.50;;;2.37;87.54
41624;BME280;27319;50.306;18.926;2024-03-07T10:24:05;99074.34;;;2.32;88.10
41624;BME280;27319;50.306;18.926;2024-03-07T10:28:08;99066.81;;;2.34;87.59
41624;BME280;27319;50.306;18.926;2024-03-07T10:32:28;99071.81;;;2.44;87.63
41624;BME280;27319;50.306;18.926;2024-03-07T10:36:09;99070.56;;;2.50;87.07
41624;BME280;27319;50.306;18.926;2024-03-07T10:40:09;99074.50;;;2.53;87.20
41624;BME280;27319;50.306;18.926;2024-03-07T10:44:10;99079.06;;;2.52;86.15
41624;BME280;27319;50.306;18.926;2024-03-07T10:48:17;99076.22;;;2.74;87.04
41624;BME280;27319;50.306;18.926;2024-03-07T10:59:45;99073.38;;;2.71;86.14
41624;BME280;27319;50.306;18.926;2024-03-07T11:03:46;99072.44;;;2.93;85.17
41624;BME280;27319;50.306;18.926;2024-03-07T11:07:49;99061.41;;;3.03;85.00
41624;BME280;27319;50.306;18.926;2024-03-07T11:11:52;99066.91;;;2.98;84.75
41624;BME280;27319;50.306;18.926;2024-03-07T11:15:53;99066.75;;;2.94;84.83
41624;BME280;27319;50.306;18.926;2024-03-07T11:19:54;99067.81;;;3.19;85.12
41624;BME280;27319;50.306;18.926;2024-03-07T11:23:55;99063.31;;;3.40;85.06
41624;BME280;27319;50.306;18.926;2024-03-07T11:27:57;99072.00;;;3.37;84.30
41624;BME280;27319;50.306;18.926;2024-03-07T11:31:57;99061.63;;;3.36;83.59
41624;BME280;27319;50.306;18.926;2024-03-07T11:35:58;99059.13;;;3.31;84.47
41624;BME280;27319;50.306;18.926;2024-03-07T11:39:59;99059.72;;;3.36;84.75
41624;BME280;27319;50.306;18.926;2024-03-07T11:44:03;99064.97;;;3.24;85.22
41624;BME280;27319;50.306;18.926;2024-03-07T11:48:04;99058.34;;;3.22;83.80
41624;BME280;27319;50.306;18.926;2024-03-07T11:52:04;99058.22;;;3.18;83.28
41624;BME280;27319;50.306;18.926;2024-03-07T11:56:05;99056.44;;;3.31;84.64
41624;BME280;27319;50.306;18.926;2024-03-07T12:00:06;99057.28;;;3.14;84.57
41624;BME280;27319;50.306;18.926;2024-03-07T12:04:10;99055.50;;;3.27;84.83
41624;BME280;27319;50.306;18.926;2024-03-07T12:08:11;99052.22;;;3.21;84.05
41624;BME280;27319;50.306;18.926;2024-03-07T12:12:12;99045.09;;;3.34;83.90
41624;BME280;27319;50.306;18.926;2024-03-07T12:16:12;99047.22;;;3.49;82.94
41624;BME280;27319;50.306;18.926;2024-03-07T12:20:13;99037.88;;;3.64;82.06
41624;BME280;27319;50.306;18.926;2024-03-07T12:24:14;99047.66;;;3.60;81.25
41624;BME280;27319;50.306;18.926;2024-03-07T12:28:24;99036.47;;;3.66;82.38
41624;BME280;27319;50.306;18.926;2024-03-07T12:32:25;99044.63;;;3.70;81.36
41624;BME280;27319;50.306;18.926;2024-03-07T12:36:28;99052.97;;;3.68;80.64
41624;BME280;27319;50.306;18.926;2024-03-07T12:40:33;99048.75;;;3.88;80.78
41624;BME280;27319;50.306;18.926;2024-03-07T12:44:43;99045.25;;;3.67;80.45
41624;BME280;27319;50.306;18.926;2024-03-07T12:48:40;99040.28;;;3.86;80.99
41624;BME280;27319;50.306;18.926;2024-03-07T12:52:41;99039.25;;;3.70;79.87
41624;BME280;27319;50.306;18.926;2024-03-07T12:56:42;99035.44;;;3.79;80.70
41624;BME280;27319;50.306;18.926;2024-03-07T13:00:43;99037.78;;;3.81;79.56
41624;BME280;27319;50.306;18.926;2024-03-07T13:04:43;99045.25;;;3.96;80.42
41624;BME280;27319;50.306;18.926;2024-03-07T13:08:44;99048.75;;;3.88;80.28
41624;BME280;27319;50.306;18.926;2024-03-07T13:12:49;99039.72;;;3.72;79.95
41624;BME280;27319;50.306;18.926;2024-03-07T13:16:46;99038.84;;;3.88;80.05
41624;BME280;27319;50.306;18.926;2024-03-07T13:20:47;99039.78;;;3.92;79.46
41624;BME280;27319;50.306;18.926;2024-03-07T13:24:48;99053.06;;;3.80;80.33
41624;BME280;27319;50.306;18.926;2024-03-07T13:28:50;99055.81;;;3.72;80.07
41624;BME280;27319;50.306;18.926;2024-03-07T13:32:50;99049.06;;;3.66;80.66
41624;BME280;27319;50.306;18.926;2024-03-07T13:36:50;99040.66;;;3.76;81.16
41624;BME280;27319;50.306;18.926;2024-03-07T13:40:51;99042.03;;;3.82;81.97
41624;BME280;27319;50.306;18.926;2024-03-07T13:44:52;99036.78;;;3.94;79.64
41624;BME280;27319;50.306;18.926;2024-03-07T13:48:53;99044.16;;;3.97;79.16
41624;BME280;27319;50.306;18.926;2024-03-07T13:52:54;99044.38;;;4.13;80.13
41624;BME280;27319;50.306;18.926;2024-03-07T13:56:51;99045.22;;;4.25;79.48
41624;BME280;27319;50.306;18.926;2024-03-07T13:59:59;99046.84;;;4.18;77.22
41624;BME280;27319;50.306;18.926;2024-03-07T14:08:17;99042.75;;;4.20;77.10
41624;BME280;27319;50.306;18.926;2024-03-07T14:11:33;99048.47;;;4.10;77.96
41624;BME280;27319;50.306;18.926;2024-03-07T14:27:33;99036.50;;;3.87;78.88
41624;BME280;27319;50.306;18.926;2024-03-07T14:31:32;99033.31;;;3.93;78.29
41624;BME280;27319;50.306;18.926;2024-03-07T14:35:59;99032.06;;;3.91;77.74
41624;BME280;27319;50.306;18.926;2024-03-07T14:40:07;99041.66;;;3.92;78.93
41624;BME280;27319;50.306;18.926;2024-03-07T14:44:05;99038.72;;;3.85;76.60
41624;BME280;27319;50.306;18.926;2024-03-07T14:48:10;99037.13;;;3.84;77.02
41624;BME280;27319;50.306;18.926;2024-03-07T14:52:10;99034.78;;;3.82;76.69
41624;BME280;27319;50.306;18.926;2024-03-07T14:56:10;99040.56;;;3.64;74.40
41624;BME280;27319;50.306;18.926;2024-03-07T15:00:12;99044.63;;;3.70;74.44
41624;BME280;27319;50.306;18.926;2024-03-07T15:04:13;99046.88;;;3.59;75.54
41624;BME280;27319;50.306;18.926;2024-03-07T15:08:13;99037.41;;;3.62;76.08
41624;BME280;27319;50.306;18.926;2024-03-07T15:12:14;99030.09;;;3.79;77.34
41624;BME280;27319;50.306;18.926;2024-03-07T15:16:15;99032.81;;;3.71;73.67
41624;BME280;27319;50.306;18.926;2024-03-07T15:20:16;99034.53;;;3.67;72.36
41624;BME280;27319;50.306;18.926;2024-03-07T15:24:18;99028.47;;;3.58;72.28
41624;BME280;27319;50.306;18.926;2024-03-07T15:28:18;99031.97;;;3.49;74.19
41624;BME280;27319;50.306;18.926;2024-03-07T15:32:19;99037.16;;;3.46;76.27
41624;BME280;27319;50.306;18.926;2024-03-07T15:36:20;99035.91;;;3.52;74.13
41624;BME280;27319;50.306;18.926;2024-03-07T15:40:21;99037.16;;;3.46;74.20
41624;BME280;27319;50.306;18.926;2024-03-07T15:44:21;99034.97;;;3.39;74.24
41624;BME280;27319;50.306;18.926;2024-03-07T15:48:23;99031.16;;;3.49;75.81
41624;BME280;27319;50.306;18.926;2024-03-07T15:52:23;99030.75;;;3.38;75.20
41624;BME280;27319;50.306;18.926;2024-03-07T15:56:24;99048.38;;;3.39;76.61
41624;BME280;27319;50.306;18.926;2024-03-07T16:00:26;99045.75;;;3.22;74.62
41624;BME280;27319;50.306;18.926;2024-03-07T16:04:29;99044.19;;;3.21;74.56
41624;BME280;27319;50.306;18.926;2024-03-07T16:08:30;99044.50;;;3.20;75.92
41624;BME280;27319;50.306;18.926;2024-03-07T16:12:31;99050.63;;;3.20;74.94
41624;BME280;27319;50.306;18.926;2024-03-07T16:16:31;99036.53;;;3.11;76.33
41624;BME280;27319;50.306;18.926;2024-03-07T16:20:32;99035.72;;;3.10;76.75
41624;BME280;27319;50.306;18.926;2024-03-07T16:24:33;99054.78;;;3.09;76.19
41624;BME280;27319;50.306;18.926;2024-03-07T16:28:34;99046.44;;;3.02;77.33
41624;BME280;27319;50.306;18.926;2024-03-07T16:32:35;99050.53;;;2.99;77.21
41624;BME280;27319;50.306;18.926;2024-03-07T16:36:39;99048.34;;;2.93;76.60
41624;BME280;27319;50.306;18.926;2024-03-07T16:40:39;99058.88;;;2.98;75.89
41624;BME280;27319;50.306;18.926;2024-03-07T16:44:40;99061.25;;;2.99;78.44
41624;BME280;27319;50.306;18.926;2024-03-07T16:48:41;99065.50;;;2.92;77.75
41624;BME280;27319;50.306;18.926;2024-03-07T16:52:42;99056.69;;;3.00;78.81
41624;BME280;27319;50.306;18.926;2024-03-07T16:56:43;99072.72;;;3.00;79.06
41624;BME280;27319;50.306;18.926;2024-03-07T17:00:44;99070.06;;;2.91;77.79
41624;BME280;27319;50.306;18.926;2024-03-07T17:04:44;99066.28;;;2.92;79.34
41624;BME280;27319;50.306;18.926;2024-03-07T17:08:45;99077.16;;;2.96;79.00
41624;BME280;27319;50.306;18.926;2024-03-07T17:12:47;99082.50;;;2.87;79.76
41624;BME280;27319;50.306;18.926;2024-03-07T17:16:50;99080.94;;;2.95;79.61
41624;BME280;27319;50.306;18.926;2024-03-07T17:20:51;99084.41;;;2.87;80.57
41624;BME280;27319;50.306;18.926;2024-03-07T17:24:51;99091.94;;;2.93;80.92
41624;BME280;27319;50.306;18.926;2024-03-07T17:28:52;99096.69;;;2.88;79.88
41624;BME280;27319;50.306;18.926;2024-03-07T17:32:53;99099.84;;;2.81;79.34
41624;BME280;27319;50.306;18.926;2024-03-07T17:36:54;99091.03;;;2.81;80.18
41624;BME280;27319;50.306;18.926;2024-03-07T17:40:55;99091.94;;;2.85;80.41
41624;BME280;27319;50.306;18.926;2024-03-07T17:44:55;99097.78;;;2.78;80.81
41624;BME280;27319;50.306;18.926;2024-03-07T17:48:56;99095.09;;;2.87;80.47
41624;BME280;27319;50.306;18.926;2024-03-07T17:53:00;99105.50;;;2.80;81.22
41624;BME280;27319;50.306;18.926;2024-03-07T17:57:00;99098.56;;;2.78;80.82
41624;BME280;27319;50.306;18.926;2024-03-07T18:01:01;99101.25;;;2.78;80.33
41624;BME280;27319;50.306;18.926;2024-03-07T18:05:02;99097.47;;;2.80;80.21
41624;BME280;27319;50.306;18.926;2024-03-07T18:08:44;99106.13;;;2.68;80.18
41624;BME280;27319;50.306;18.926;2024-03-07T18:12:08;99101.41;;;2.73;81.11
41624;BME280;27319;50.306;18.926;2024-03-07T18:16:09;99110.38;;;2.69;81.42
41624;BME280;27319;50.306;18.926;2024-03-07T18:20:10;99105.19;;;2.72;80.36
41624;BME280;27319;50.306;18.926;2024-03-07T18:23:34;99112.28;;;2.68;81.96
41624;BME280;27319;50.306;18.926;2024-03-07T18:27:35;99112.88;;;2.65;81.33
41624;BME280;27319;50.306;18.926;2024-03-07T18:31:03;99113.66;;;2.57;81.53
41624;BME280;27319;50.306;18.926;2024-03-07T18:35:05;99121.06;;;2.60;81.15
41624;BME280;27319;50.306;18.926;2024-03-07T18:38:45;99115.41;;;2.62;81.35
41624;BME280;27319;50.306;18.926;2024-03-07T18:41:51;99117.13;;;2.58;81.56
41624;BME280;27319;50.306;18.926;2024-03-07T18:45:13;99119.19;;;2.61;80.65
41624;BME280;27319;50.306;18.926;2024-03-07T18:49:13;99114.78;;;2.65;81.75
41624;BME280;27319;50.306;18.926;2024-03-07T18:53:14;99120.59;;;2.58;81.37
41624;BME280;27319;50.306;18.926;2024-03-07T18:57:15;99116.97;;;2.46;80.38
41624;BME280;27319;50.306;18.926;2024-03-07T19:01:16;99119.28;;;2.30;80.92
41624;BME280;27319;50.306;18.926;2024-03-07T19:05:16;99116.63;;;2.30;80.84
41624;BME280;27319;50.306;18.926;2024-03-07T19:09:17;99118.34;;;2.26;82.12
41624;BME280;27319;50.306;18.926;2024-03-07T19:13:18;99112.38;;;2.29;81.28
41624;BME280;27319;50.306;18.926;2024-03-07T19:17:19;99116.94;;;2.28;82.04
41624;BME280;27319;50.306;18.926;2024-03-07T19:21:20;99122.41;;;2.15;82.34
41624;BME280;27319;50.306;18.926;2024-03-07T19:25:21;99118.97;;;2.23;82.46
41624;BME280;27319;50.306;18.926;2024-03-07T19:29:21;99119.84;;;1.92;82.06
41624;BME280;27319;50.306;18.926;2024-03-07T19:33:05;99121.06;;;1.78;82.72
41624;BME280;27319;50.306;18.926;2024-03-07T19:36:14;99123.88;;;1.81;82.60
41624;BME280;27319;50.306;18.926;2024-03-07T19:39:16;99117.75;;;1.72;82.98
41624;BME280;27319;50.306;18.926;2024-03-07T19:42:39;99113.19;;;1.42;82.68
41624;BME280;27319;50.306;18.926;2024-03-07T19:46:40;99110.38;;;1.38;83.83
41624;BME280;27319;50.306;18.926;2024-03-07T19:50:41;99113.56;;;1.27;82.85
41624;BME280;27319;50.306;18.926;2024-03-07T19:54:41;99115.16;;;1.28;84.47
41624;BME280;27319;50.306;18.926;2024-03-07T19:58:42;99111.63;;;1.18;84.63
41624;BME280;27319;50.306;18.926;2024-03-07T20:02:43;99109.97;;;1.00;84.45
41624;BME280;27319;50.306;18.926;2024-03-07T20:06:44;99103.47;;;0.93;84.37
41624;BME280;27319;50.306;18.926;2024-03-07T20:10:45;99117.09;;;0.91;85.59
41624;BME280;27319;50.306;18.926;2024-03-07T20:14:48;99117.59;;;0.71;85.86
41624;BME280;27319;50.306;18.926;2024-03-07T20:18:52;99112.25;;;0.71;85.98
41624;BME280;27319;50.306;18.926;2024-03-07T20:22:52;99111.78;;;0.69;85.96
41624;BME280;27319;50.306;18.926;2024-03-07T20:26:56;99108.88;;;0.79;86.06
41624;BME280;27319;50.306;18.926;2024-03-07T20:30:57;99101.00;;;0.74;86.94
41624;BME280;27319;50.306;18.926;2024-03-07T20:34:57;99100.25;;;0.60;86.13
41624;BME280;27319;50.306;18.926;2024-03-07T20:38:58;99103.25;;;0.45;86.37
41624;BME280;27319;50.306;18.926;2024-03-07T20:42:59;99105.88;;;0.22;87.40
41624;BME280;27319;50.306;18.926;2024-03-07T20:47:00;99106.09;;;0.12;87.34
41624;BME280;27319;50.306;18.926;2024-03-07T20:51:01;99110.25;;;0.18;87.07
41624;BME280;27319;50.306;18.926;2024-03-07T20:55:02;99108.84;;;0.07;87.86
41624;BME280;27319;50.306;18.926;2024-03-07T20:59:05;99109.44;;;0.18;87.50
41624;BME280;27319;50.306;18.926;2024-03-07T21:03:06;99107.78;;;0.08;88.04
41624;BME280;27319;50.306;18.926;2024-03-07T21:07:07;99106.13;;;-0.02;87.72
41624;BME280;27319;50.306;18.926;2024-03-07T21:11:08;99097.22;;;0.03;88.32
41624;BME280;27319;50.306;18.926;2024-03-07T21:15:09;99101.88;;;-0.03;88.03
41624;BME280;27319;50.306;18.926;2024-03-07T21:19:09;99107.78;;;0.08;87.64
41624;BME280;27319;50.306;18.926;2024-03-07T21:23:10;99104.53;;;0.11;88.37